Time;durP1;ratioP1;P1;durP2;ratioP2;P2;SDS_P1;SDS_P2;PMS_P1;PMS_P2;Temp;Humidity;BMP_temperature;BMP_pressure;BME280_temperature;BME280_humidity;BME280_pressure;Samples;Min_cycle;Max_cycle;Signal;HPM_P1;HPM_P2
2023/07/10 00:00:57;;;;;;;1.92;1.33;;;18.00;99.90;;;;;;5083718;28;20076;-71
2023/07/10 00:03:23;;;;;;;1.48;0.75;;;18.00;99.90;;;;;;5083938;28;20051;-71
2023/07/10 00:05:49;;;;;;;0.55;0.55;;;18.00;99.90;;;;;;5083896;28;20047;-71
2023/07/10 00:08:15;;;;;;;1.67;0.52;;;18.00;99.90;;;;;;5083923;28;20067;-71
2023/07/10 00:10:40;;;;;;;2.00;0.95;;;18.00;99.90;;;;;;5083731;28;20151;-72
2023/07/10 00:13:10;;;;;;;2.95;0.93;;;18.00;99.90;;;;;;5084101;28;20040;-71
2023/07/10 00:15:36;;;;;;;1.02;0.77;;;18.00;99.90;;;;;;5083769;28;20486;-71
2023/07/10 00:18:10;;;;;;;1.02;0.70;;;18.00;99.90;;;;;;5083427;28;20101;-72
2023/07/10 00:20:36;;;;;;;1.08;0.98;;;18.00;99.90;;;;;;5083501;28;20044;-72
2023/07/10 00:23:01;;;;;;;1.27;1.00;;;18.00;99.90;;;;;;5083813;28;20055;-72
2023/07/10 00:25:27;;;;;;;0.80;0.70;;;18.00;99.90;;;;;;5083683;28;20067;-71
2023/07/10 00:27:53;;;;;;;0.38;0.25;;;18.00;99.90;;;;;;5084027;28;20481;-71
2023/07/10 00:30:24;;;;;;;12.60;2.17;;;18.00;99.90;;;;;;5083930;28;20056;-71
2023/07/10 00:32:52;;;;;;;0.90;0.82;;;18.00;99.90;;;;;;5083731;28;20048;-71
2023/07/10 00:35:26;;;;;;;0.50;0.40;;;18.10;99.90;;;;;;5083722;28;20048;-72
2023/07/10 00:38:01;;;;;;;0.68;0.68;;;18.10;99.90;;;;;;5084107;28;20040;-71
2023/07/10 00:40:31;;;;;;;1.48;1.33;;;18.20;99.90;;;;;;5083314;28;20479;-71
2023/07/10 00:43:34;;;;;;;0.57;0.13;;;18.20;99.90;;;;;;5084177;28;20444;-72
2023/07/10 00:46:14;;;;;;;0.47;0.15;;;18.10;99.90;;;;;;5083401;28;20148;-71
2023/07/10 00:48:46;;;;;;;0.57;0.57;;;18.20;99.90;;;;;;5083680;28;20044;-72
2023/07/10 00:51:22;;;;;;;3.22;1.95;;;18.10;99.90;;;;;;5083809;28;20055;-72
2023/07/10 00:53:49;;;;;;;0.57;0.57;;;18.10;99.90;;;;;;5083777;28;20075;-71
2023/07/10 00:56:19;;;;;;;1.42;0.77;;;18.10;99.90;;;;;;5083569;28;20048;-72
2023/07/10 00:58:48;;;;;;;2.35;1.55;;;18.10;99.90;;;;;;5083708;28;20082;-72
2023/07/10 01:01:18;;;;;;;0.85;0.57;;;18.10;99.90;;;;;;5083513;28;20418;-71
2023/07/10 01:03:46;;;;;;;0.95;0.77;;;18.10;99.90;;;;;;5083231;28;20044;-72
2023/07/10 01:06:21;;;;;;;0.85;0.70;;;18.10;99.90;;;;;;5083700;28;20032;-71
2023/07/10 01:09:03;;;;;;;1.75;1.13;;;18.10;99.90;;;;;;5083190;28;20048;-71
2023/07/10 01:11:29;;;;;;;0.77;0.63;;;18.10;99.90;;;;;;5083465;28;20048;-71
2023/07/10 01:13:57;;;;;;;2.67;1.80;;;18.10;99.90;;;;;;5083464;28;20159;-72
2023/07/10 01:16:24;;;;;;;5.47;1.35;;;18.10;99.90;;;;;;5083277;28;20085;-72
2023/07/10 01:18:50;;;;;;;0.63;0.38;;;18.10;99.90;;;;;;5083918;28;20068;-72
2023/07/10 01:21:30;;;;;;;0.65;0.63;;;18.10;99.90;;;;;;5083231;28;20131;-72
2023/07/10 01:23:57;;;;;;;1.88;1.48;;;18.10;99.90;;;;;;5083660;28;20151;-72
2023/07/10 01:26:24;;;;;;;2.65;1.20;;;18.10;99.90;;;;;;5083811;28;20097;-72
2023/07/10 01:28:52;;;;;;;1.88;1.42;;;18.10;99.90;;;;;;5083143;28;20119;-71
2023/07/10 01:31:19;;;;;;;4.28;0.60;;;18.10;99.90;;;;;;5083247;28;20130;-71
2023/07/10 01:33:58;;;;;;;1.17;0.90;;;18.10;99.90;;;;;;5083378;28;20097;-72
2023/07/10 01:36:28;;;;;;;0.88;0.85;;;18.10;99.90;;;;;;5083236;28;20044;-72
2023/07/10 01:39:13;;;;;;;2.08;1.85;;;18.10;99.90;;;;;;5083481;28;20052;-72
2023/07/10 01:41:41;;;;;;;3.08;2.05;;;18.10;99.90;;;;;;5083030;28;20064;-72
2023/07/10 01:44:29;;;;;;;1.63;1.50;;;18.10;99.90;;;;;;5082818;28;20059;-72
2023/07/10 01:46:57;;;;;;;3.05;2.47;;;18.00;99.90;;;;;;5083672;28;20048;-71
2023/07/10 01:49:33;;;;;;;5.10;2.53;;;18.00;99.90;;;;;;5083180;28;20040;-72
2023/07/10 01:51:59;;;;;;;;;;;17.90;99.90;;;;;;5085530;28;20466;-71
2023/07/10 01:54:25;;;;;;;1.40;1.10;;;17.70;99.90;;;;;;5086538;28;19993;-71
2023/07/10 01:56:51;;;;;;;1.58;1.27;;;17.70;99.90;;;;;;5086265;28;20509;-71
2023/07/10 01:59:17;;;;;;;1.50;1.40;;;17.70;99.90;;;;;;5086490;28;20080;-72
2023/07/10 02:01:43;;;;;;;6.20;1.35;;;17.60;99.90;;;;;;5086509;28;20510;-72
2023/07/10 02:04:09;;;;;;;2.63;1.50;;;17.60;99.90;;;;;;5086269;28;20409;-72
2023/07/10 02:06:36;;;;;;;0.95;0.75;;;17.60;99.90;;;;;;5086566;28;20075;-71
2023/07/10 02:09:04;;;;;;;1.05;0.80;;;17.50;99.90;;;;;;5086193;28;20048;-71
2023/07/10 02:11:29;;;;;;;0.85;0.82;;;17.50;99.90;;;;;;5086566;28;20047;-71
2023/07/10 02:13:55;;;;;;;2.10;1.60;;;17.50;99.90;;;;;;5086593;28;20439;-71
2023/07/10 02:16:21;;;;;;;0.52;0.45;;;17.50;99.90;;;;;;5086438;28;20533;-71
2023/07/10 02:18:46;;;;;;;4.13;1.15;;;17.50;99.90;;;;;;5086307;28;20044;-71
2023/07/10 02:21:13;;;;;;;0.75;0.57;;;17.50;99.90;;;;;;5086255;28;20040;-71
2023/07/10 02:23:40;;;;;;;0.93;0.88;;;17.50;99.90;;;;;;5086704;28;20124;-72
2023/07/10 02:26:06;;;;;;;1.10;1.02;;;17.50;99.90;;;;;;5086396;28;20048;-72
2023/07/10 02:28:31;;;;;;;6.68;2.60;;;17.40;99.90;;;;;;5086784;28;20055;-72
2023/07/10 02:31:02;;;;;;;1.10;1.02;;;17.40;99.90;;;;;;5086418;28;20074;-70
2023/07/10 02:33:28;;;;;;;1.50;1.38;;;17.40;99.90;;;;;;5086036;28;20048;-70
2023/07/10 02:35:54;;;;;;;9.43;1.38;;;17.40;99.90;;;;;;5086068;28;20055;-70
2023/07/10 02:38:19;;;;;;;1.45;1.10;;;17.40;99.90;;;;;;5086188;28;20048;-70
2023/07/10 02:40:45;;;;;;;1.88;1.08;;;17.30;99.90;;;;;;5085601;28;20071;-71
2023/07/10 02:43:11;;;;;;;1.80;1.15;;;17.40;99.90;;;;;;5086055;28;20056;-71
2023/07/10 02:45:36;;;;;;;1.98;1.35;;;17.40;99.90;;;;;;5085681;28;20549;-71
2023/07/10 02:48:02;;;;;;;1.40;0.77;;;17.40;99.90;;;;;;5085491;28;20131;-71
2023/07/10 02:50:28;;;;;;;3.97;1.83;;;17.40;99.90;;;;;;5085864;28;20106;-71
2023/07/10 02:52:54;;;;;;;0.95;0.93;;;17.30;99.90;;;;;;5085085;28;20044;-71
2023/07/10 02:55:20;;;;;;;1.65;1.30;;;17.30;99.90;;;;;;5085043;28;20415;-71
2023/07/10 02:57:45;;;;;;;2.58;1.27;;;17.40;99.90;;;;;;5085088;28;20050;-71
2023/07/10 03:00:12;;;;;;;1.17;0.65;;;17.40;99.90;;;;;;5085552;28;20076;-71
2023/07/10 03:02:38;;;;;;;2.63;1.38;;;17.40;99.90;;;;;;5084892;28;20048;-71
2023/07/10 03:05:04;;;;;;;1.13;0.88;;;17.40;99.90;;;;;;5085248;28;20039;-71
2023/07/10 03:07:30;;;;;;;1.65;1.02;;;17.40;99.90;;;;;;5085431;28;20125;-71
2023/07/10 03:09:56;;;;;;;0.57;0.57;;;17.40;99.90;;;;;;5085456;28;20046;-70
2023/07/10 03:12:22;;;;;;;1.08;0.98;;;17.40;99.90;;;;;;5084908;28;20044;-71
2023/07/10 03:14:49;;;;;;;1.08;0.98;;;17.40;99.90;;;;;;5084573;28;20048;-71
2023/07/10 03:17:15;;;;;;;1.65;0.35;;;17.40;99.90;;;;;;5084837;28;20658;-71
2023/07/10 03:19:40;;;;;;;0.75;0.75;;;17.40;99.90;;;;;;5084655;28;20092;-71
2023/07/10 03:22:06;;;;;;;2.63;1.88;;;17.40;99.90;;;;;;5084537;28;20156;-71
2023/07/10 03:24:32;;;;;;;3.22;1.33;;;17.30;99.90;;;;;;5084024;28;20044;-71
2023/07/10 03:26:58;;;;;;;1.52;1.40;;;17.30;99.90;;;;;;5084629;28;20567;-71
2023/07/10 03:29:23;;;;;;;2.38;1.38;;;17.30;99.90;;;;;;5084492;28;20478;-71
2023/07/10 03:31:49;;;;;;;0.88;0.60;;;17.20;99.90;;;;;;5084431;28;20048;-71
2023/07/10 03:34:15;;;;;;;0.65;0.57;;;17.20;99.90;;;;;;5084402;28;20387;-71
2023/07/10 03:36:41;;;;;;;0.98;0.88;;;17.20;99.90;;;;;;5084351;28;20048;-71
2023/07/10 03:39:08;;;;;;;0.25;0.25;;;17.10;99.90;;;;;;5083998;28;20047;-71
2023/07/10 03:41:34;;;;;;;1.23;0.98;;;17.10;99.90;;;;;;5083790;28;20066;-71
2023/07/10 03:44:00;;;;;;;1.45;1.33;;;17.10;99.90;;;;;;5084670;28;20055;-71
2023/07/10 03:46:25;;;;;;;0.85;0.70;;;17.10;99.90;;;;;;5084451;28;20380;-71
2023/07/10 03:48:51;;;;;;;2.28;1.42;;;17.00;99.90;;;;;;5084451;28;20048;-71
2023/07/10 03:51:18;;;;;;;1.85;0.75;;;17.10;99.90;;;;;;5084277;28;20036;-71
2023/07/10 03:53:44;;;;;;;1.08;0.60;;;17.20;99.90;;;;;;5084034;28;20871;-71
2023/07/10 03:56:09;;;;;;;0.98;0.65;;;17.20;99.90;;;;;;5084151;28;20036;-71
2023/07/10 03:58:40;;;;;;;0.85;0.63;;;17.20;99.90;;;;;;5084383;28;20043;-72
2023/07/10 04:01:05;;;;;;;1.00;0.63;;;17.20;99.90;;;;;;5084282;28;20105;-71
2023/07/10 04:03:33;;;;;;;1.17;0.68;;;17.20;99.90;;;;;;5084182;28;20048;-71
2023/07/10 04:06:00;;;;;;;1.85;1.70;;;17.20;99.90;;;;;;5083823;28;20048;-71
2023/07/10 04:08:29;;;;;;;1.73;1.15;;;17.30;99.90;;;;;;5083992;28;20048;-71
2023/07/10 04:10:57;;;;;;;0.95;0.60;;;17.40;99.90;;;;;;5084020;28;20502;-71
2023/07/10 04:13:23;;;;;;;1.13;0.60;;;17.40;99.90;;;;;;5083273;28;20087;-71
2023/07/10 04:16:02;;;;;;;2.60;1.27;;;17.50;99.90;;;;;;5083404;28;20254;-71
2023/07/10 04:18:36;;;;;;;3.25;1.40;;;17.50;99.90;;;;;;5083731;28;20044;-71
2023/07/10 04:21:06;;;;;;;3.25;1.35;;;17.50;99.90;;;;;;5083939;28;20052;-71
2023/07/10 04:23:32;;;;;;;2.08;1.20;;;17.50;99.90;;;;;;5083544;28;20509;-72
2023/07/10 04:25:58;;;;;;;1.63;0.98;;;17.50;99.90;;;;;;5083593;28;20043;-71
2023/07/10 04:28:24;;;;;;;1.83;1.05;;;17.50;99.90;;;;;;5083675;28;20047;-71
2023/07/10 04:30:51;;;;;;;3.20;0.85;;;17.50;99.90;;;;;;5083728;28;20048;-72
2023/07/10 04:33:17;;;;;;;1.60;0.85;;;17.60;99.90;;;;;;5083927;28;20048;-72
2023/07/10 04:35:44;;;;;;;0.98;0.73;;;17.60;99.90;;;;;;5083772;28;20557;-71
2023/07/10 04:38:10;;;;;;;2.00;1.30;;;17.60;99.90;;;;;;5083765;28;20055;-72
2023/07/10 04:40:36;;;;;;;0.60;0.52;;;17.60;99.90;;;;;;5083628;28;20241;-72
2023/07/10 04:43:03;;;;;;;1.10;0.52;;;17.60;99.90;;;;;;5083595;28;20582;-71
2023/07/10 04:45:28;;;;;;;2.42;1.52;;;17.70;99.90;;;;;;5083610;28;20046;-72
2023/07/10 04:47:54;;;;;;;2.30;1.13;;;17.70;99.90;;;;;;5083932;28;20122;-72
2023/07/10 04:50:21;;;;;;;1.17;1.08;;;17.70;99.90;;;;;;5083419;28;20071;-71
2023/07/10 04:52:47;;;;;;;3.13;1.98;;;17.70;99.90;;;;;;5081820;28;20052;-71
2023/07/10 04:55:13;;;;;;;1.77;1.42;;;17.70;99.90;;;;;;5082179;28;20422;-72
2023/07/10 04:57:38;;;;;;;0.60;0.57;;;17.80;99.90;;;;;;5079966;28;20100;-71
2023/07/10 05:00:05;;;;;;;0.88;0.85;;;17.80;99.90;;;;;;5081615;28;20506;-71
2023/07/10 05:02:30;;;;;;;0.40;0.40;;;17.90;99.90;;;;;;5081554;28;20086;-71
2023/07/10 05:04:56;;;;;;;0.57;0.45;;;18.10;99.90;;;;;;5079281;28;20079;-72
2023/07/10 05:07:22;;;;;;;2.22;1.15;;;17.80;99.90;;;;;;5078814;28;20051;-72
2023/07/10 05:09:47;;;;;;;2.75;2.13;;;17.70;99.90;;;;;;5079419;28;20091;-72
2023/07/10 05:12:13;;;;;;;1.48;0.68;;;17.60;99.90;;;;;;5079534;28;20036;-72
2023/07/10 05:14:39;;;;;;;0.30;0.30;;;17.60;99.90;;;;;;5078818;28;20097;-72
2023/07/10 05:17:04;;;;;;;0.38;0.32;;;17.60;99.90;;;;;;5079360;28;20044;-72
2023/07/10 05:19:32;;;;;;;0.15;0.15;;;17.50;99.90;;;;;;5078847;28;20101;-72
2023/07/10 05:21:59;;;;;;;3.83;1.08;;;17.50;99.90;;;;;;5079594;28;20044;-71
2023/07/10 05:24:25;;;;;;;0.43;0.43;;;17.50;99.90;;;;;;5078702;28;20108;-71
2023/07/10 05:26:51;;;;;;;0.20;0.20;;;17.60;99.90;;;;;;5083552;28;20098;-72
2023/07/10 05:29:17;;;;;;;2.58;1.38;;;17.60;99.90;;;;;;5084714;28;20565;-72
2023/07/10 05:31:42;;;;;;;0.82;0.35;;;17.70;99.90;;;;;;5085686;28;20076;-72
2023/07/10 05:34:08;;;;;;;0.00;0.00;;;17.80;99.90;;;;;;5085130;28;20048;-72
2023/07/10 05:36:34;;;;;;;0.70;0.60;;;17.90;99.90;;;;;;5085552;28;20094;-72
2023/07/10 05:38:59;;;;;;;4.78;0.43;;;17.90;99.90;;;;;;5085251;28;20105;-72
2023/07/10 05:41:25;;;;;;;1.38;0.98;;;18.00;99.90;;;;;;5084669;28;20801;-72
2023/07/10 05:43:50;;;;;;;0.32;0.32;;;18.00;99.90;;;;;;5083085;28;20374;-72
2023/07/10 05:46:17;;;;;;;1.60;0.57;;;18.10;99.90;;;;;;5083572;28;20292;-72
2023/07/10 05:48:43;;;;;;;1.65;0.40;;;18.10;99.90;;;;;;5083683;28;20106;-72
2023/07/10 05:51:09;;;;;;;3.15;1.08;;;18.10;99.90;;;;;;5083028;28;20044;-71
2023/07/10 05:53:34;;;;;;;0.55;0.35;;;18.20;99.90;;;;;;5082837;28;20052;-72
2023/07/10 05:56:01;;;;;;;0.28;0.28;;;18.30;99.90;;;;;;5083217;28;20048;-72
2023/07/10 05:58:28;;;;;;;0.10;0.10;;;18.30;99.90;;;;;;5084192;28;20533;-72
2023/07/10 06:00:57;;;;;;;0.00;0.00;;;18.40;99.90;;;;;;5084968;28;20052;-72
2023/07/10 06:03:23;;;;;;;1.25;1.15;;;18.30;99.90;;;;;;5084580;28;20486;-72
2023/07/10 06:05:58;;;;;;;0.05;0.05;;;18.30;99.90;;;;;;5084708;28;20044;-72
2023/07/10 06:08:25;;;;;;;0.00;0.00;;;18.50;99.90;;;;;;5084622;28;20048;-72
2023/07/10 06:10:51;;;;;;;0.70;0.65;;;18.60;99.90;;;;;;5084681;28;20051;-72
2023/07/10 06:13:17;;;;;;;0.85;0.10;;;18.50;99.90;;;;;;5085150;28;20044;-72
2023/07/10 06:15:49;;;;;;;0.35;0.35;;;18.60;99.90;;;;;;5084500;28;20572;-72
2023/07/10 06:18:16;;;;;;;0.20;0.20;;;18.70;99.90;;;;;;5084845;28;20323;-71
2023/07/10 06:20:42;;;;;;;0.20;0.20;;;18.80;99.90;;;;;;5084775;28;20414;-72
2023/07/10 06:23:08;;;;;;;0.63;0.63;;;18.70;99.90;;;;;;5084795;28;20410;-72
2023/07/10 06:25:33;;;;;;;0.00;0.00;;;18.60;99.90;;;;;;5084255;28;20128;-72
2023/07/10 06:27:59;;;;;;;0.80;0.52;;;18.70;99.90;;;;;;5084385;28;20097;-72
2023/07/10 06:30:25;;;;;;;0.00;0.00;;;19.10;99.90;;;;;;5084608;28;20044;-72
2023/07/10 06:32:51;;;;;;;0.73;0.68;;;19.10;99.90;;;;;;5084582;28;20122;-72
2023/07/10 06:35:17;;;;;;;0.57;0.13;;;19.20;99.90;;;;;;5084254;28;20063;-72
2023/07/10 06:37:43;;;;;;;0.82;0.57;;;19.90;99.90;;;;;;5083373;28;20397;-72
2023/07/10 06:40:16;;;;;;;0.52;0.45;;;21.10;99.90;;;;;;5083684;28;20048;-72
2023/07/10 06:42:42;;;;;;;0.28;0.25;;;21.90;99.90;;;;;;5084129;28;20044;-72
2023/07/10 06:45:11;;;;;;;0.85;0.38;;;22.00;99.90;;;;;;5084225;28;20036;-72
2023/07/10 06:47:40;;;;;;;1.50;0.55;;;22.00;99.90;;;;;;5081125;28;20048;-71
2023/07/10 06:50:07;;;;;;;0.30;0.30;;;21.50;99.90;;;;;;5075435;28;20088;-72
2023/07/10 06:52:33;;;;;;;0.22;0.22;;;21.00;99.90;;;;;;5083455;28;20044;-72
2023/07/10 06:54:59;;;;;;;0.73;0.73;;;20.50;99.90;;;;;;5083982;28;20044;-72
2023/07/10 06:57:25;;;;;;;18.92;1.02;;;20.00;99.90;;;;;;5083849;28;20092;-72
2023/07/10 06:59:50;;;;;;;0.00;0.00;;;19.70;99.90;;;;;;5084043;28;20044;-72
2023/07/10 07:02:16;;;;;;;0.17;0.13;;;20.20;99.90;;;;;;5083944;28;20082;-72
2023/07/10 07:04:42;;;;;;;0.00;0.00;;;21.10;99.90;;;;;;5082487;28;20043;-72
2023/07/10 07:07:08;;;;;;;0.10;0.10;;;22.10;99.90;;;;;;5080910;28;20535;-72
2023/07/10 07:09:33;;;;;;;1.45;0.38;;;23.10;99.90;;;;;;5081484;28;20048;-72
2023/07/10 07:11:59;;;;;;;0.00;0.00;;;23.90;99.90;;;;;;5081220;28;20482;-72
2023/07/10 07:14:26;;;;;;;0.28;0.28;;;24.60;1.00;;;;;;5080847;28;20120;-73
2023/07/10 07:16:51;;;;;;;0.63;0.30;;;25.20;99.90;;;;;;5080849;28;20040;-72
2023/07/10 07:19:17;;;;;;;0.10;0.10;;;25.50;99.90;;;;;;5081147;28;20051;-73
2023/07/10 07:21:42;;;;;;;0.35;0.20;;;25.70;99.90;;;;;;5079071;28;20119;-73
2023/07/10 07:24:08;;;;;;;0.65;0.55;;;26.10;99.90;;;;;;5081093;28;20048;-72
2023/07/10 07:26:35;;;;;;;1.65;0.60;;;26.30;99.90;;;;;;5062468;28;20125;-73
2023/07/10 07:29:00;;;;;;;0.32;0.32;;;26.40;99.90;;;;;;5060515;28;20342;-73
2023/07/10 07:31:26;;;;;;;0.17;0.10;;;26.70;64.30;;;;;;5060742;28;20047;-73
2023/07/10 07:33:52;;;;;;;5.40;1.02;;;26.70;1.00;;;;;;5060556;28;20077;-73
2023/07/10 07:36:17;;;;;;;1.98;0.85;;;27.10;1.00;;;;;;5060937;28;20044;-73
2023/07/10 07:38:43;;;;;;;0.00;0.00;;;27.10;99.90;;;;;;5059324;28;20123;-73
2023/07/10 07:41:09;;;;;;;0.00;0.00;;;27.20;99.90;;;;;;5070710;28;20078;-73
2023/07/10 07:43:34;;;;;;;0.38;0.15;;;27.00;96.20;;;;;;5068547;28;20134;-73
2023/07/10 07:46:00;;;;;;;0.20;0.10;;;27.00;68.40;;;;;;5067461;28;20052;-72
2023/07/10 07:48:26;;;;;;;0.70;0.57;;;27.40;10.90;;;;;;5067414;28;20051;-72
2023/07/10 07:51:02;;;;;;;0.17;0.10;;;27.40;1.00;;;;;;5067570;28;20253;-73
2023/07/10 07:53:30;;;;;;;0.10;0.08;;;27.40;1.00;;;;;;5067415;28;20136;-73
2023/07/10 07:55:55;;;;;;;0.60;0.55;;;27.60;1.00;;;;;;5067026;28;20089;-71
2023/07/10 07:58:21;;;;;;;0.43;0.30;;;27.90;99.90;;;;;;5066977;28;20799;-70
2023/07/10 08:00:48;;;;;;;0.20;0.20;;;28.20;99.90;;;;;;5066773;28;20048;-71
2023/07/10 08:03:14;;;;;;;0.28;0.22;;;28.20;99.90;;;;;;5067216;28;20402;-72
2023/07/10 08:05:40;;;;;;;2.45;1.08;;;28.40;99.90;;;;;;5067251;28;20052;-72
2023/07/10 08:08:08;;;;;;;1.55;1.08;;;28.40;99.90;;;;;;5065632;28;20047;-72
2023/07/10 08:10:47;;;;;;;0.43;0.38;;;28.50;99.90;;;;;;5067893;28;20054;-72
2023/07/10 08:13:14;;;;;;;0.35;0.32;;;29.00;99.90;;;;;;5067227;28;20095;-72
2023/07/10 08:15:41;;;;;;;0.00;0.00;;;29.20;99.90;;;;;;5067620;28;20063;-72
2023/07/10 08:18:07;;;;;;;1.98;0.43;;;29.50;99.90;;;;;;5066704;28;20055;-72
2023/07/10 08:20:33;;;;;;;0.00;0.00;;;28.70;99.90;;;;;;5067742;28;20167;-72
2023/07/10 08:22:59;;;;;;;0.65;0.40;;;28.40;99.90;;;;;;5067418;28;20052;-72
2023/07/10 08:25:25;;;;;;;2.95;0.40;;;29.00;99.90;;;;;;5067417;28;20040;-72
2023/07/10 08:27:50;;;;;;;0.10;0.10;;;29.40;99.90;;;;;;5066845;28;20134;-72
2023/07/10 08:30:16;;;;;;;0.38;0.35;;;28.70;2.60;;;;;;5061721;28;20041;-72
2023/07/10 08:32:42;;;;;;;0.00;0.00;;;27.70;1.00;;;;;;5058827;28;20090;-72
2023/07/10 08:35:08;;;;;;;0.95;0.80;;;27.10;1.00;;;;;;5064504;28;20434;-71
2023/07/10 08:37:36;;;;;;;1.35;0.65;;;27.20;1.00;;;;;;5059024;28;20048;-71
2023/07/10 08:40:10;;;;;;;1.95;0.63;;;27.80;1.00;;;;;;5058845;28;20084;-72
2023/07/10 08:42:36;;;;;;;0.63;0.45;;;27.90;1.00;;;;;;5059120;28;20883;-72
2023/07/10 08:45:02;;;;;;;0.65;0.38;;;27.70;1.00;;;;;;5059259;28;20094;-72
2023/07/10 08:47:36;;;;;;;0.15;0.13;;;27.90;1.00;;;;;;5059061;28;20051;-72
2023/07/10 08:50:12;;;;;;;0.73;0.63;;;28.40;1.00;;;;;;5059300;28;20044;-72
2023/07/10 08:53:19;;;;;;;0.00;0.00;;;28.30;1.00;;;;;;5058902;28;20507;-72
2023/07/10 08:55:55;;;;;;;1.20;0.55;;;28.20;1.00;;;;;;5058817;28;20132;-71
2023/07/10 08:58:24;;;;;;;0.03;0.03;;;27.50;1.00;;;;;;5058929;28;20534;-72
2023/07/10 09:00:56;;;;;;;0.65;0.45;;;27.70;1.00;;;;;;5061373;28;20414;-72
2023/07/10 09:03:44;;;;;;;0.35;0.32;;;28.40;1.00;;;;;;5062044;28;20052;-72
2023/07/10 09:06:18;;;;;;;0.70;0.63;;;29.00;1.00;;;;;;5063393;28;20079;-73
2023/07/10 09:08:49;;;;;;;0.85;0.85;;;29.50;1.00;;;;;;5062915;28;20499;-72
2023/07/10 09:11:15;;;;;;;0.55;0.52;;;29.60;1.00;;;;;;5063590;28;20072;-72
2023/07/10 09:13:53;;;;;;;0.32;0.22;;;29.70;1.00;;;;;;5062754;28;20080;-72
2023/07/10 09:16:20;;;;;;;1.73;0.75;;;30.00;99.90;;;;;;5062924;28;20049;-72
2023/07/10 09:18:53;;;;;;;0.82;0.60;;;29.60;99.90;;;;;;5062035;28;20059;-72
2023/07/10 09:21:30;;;;;;;0.17;0.13;;;29.50;99.90;;;;;;5065843;28;20617;-72
2023/07/10 09:23:56;;;;;;;1.98;0.57;;;29.60;99.90;;;;;;5064997;28;20079;-72
2023/07/10 09:26:28;;;;;;;1.73;0.88;;;29.90;99.90;;;;;;5065052;28;20087;-72
2023/07/10 09:29:14;;;;;;;0.77;0.60;;;30.10;99.90;;;;;;5064976;28;20136;-72
2023/07/10 09:31:55;;;;;;;0.13;0.10;;;30.50;99.90;;;;;;5065250;28;20430;-72
2023/07/10 09:34:32;;;;;;;0.43;0.40;;;31.00;99.90;;;;;;5064955;28;20063;-72
2023/07/10 09:36:59;;;;;;;0.82;0.55;;;31.10;99.90;;;;;;5064915;28;20143;-72
2023/07/10 09:39:32;;;;;;;1.33;0.45;;;31.10;99.90;;;;;;5064843;28;20048;-72
2023/07/10 09:41:59;;;;;;;0.32;0.32;;;30.50;99.90;;;;;;5064942;28;20173;-73
2023/07/10 09:44:37;;;;;;;1.02;0.45;;;30.40;99.90;;;;;;5064573;28;20051;-72
2023/07/10 09:47:12;;;;;;;0.00;0.00;;;31.20;99.90;;;;;;5065078;28;20048;-72
2023/07/10 09:50:00;;;;;;;1.35;1.00;;;30.90;99.90;;;;;;5065448;28;20130;-72
2023/07/10 09:52:30;;;;;;;0.10;0.10;;;30.50;99.90;;;;;;5064938;28;20051;-72
2023/07/10 09:55:23;;;;;;;0.15;0.15;;;30.10;99.90;;;;;;5065335;28;20517;-72
2023/07/10 09:58:01;;;;;;;1.15;0.45;;;30.30;99.90;;;;;;5062000;28;20080;-73
2023/07/10 10:00:28;;;;;;;0.55;0.35;;;30.20;99.90;;;;;;5065330;28;20445;-73
2023/07/10 10:02:57;;;;;;;0.10;0.10;;;30.10;99.90;;;;;;5065189;28;20044;-73
2023/07/10 10:05:24;;;;;;;0.57;0.28;;;30.10;99.90;;;;;;5064841;28;20403;-73
2023/07/10 10:07:52;;;;;;;0.32;0.30;;;29.30;99.90;;;;;;5064295;28;20120;-74
2023/07/10 10:10:24;;;;;;;1.10;0.68;;;28.70;99.90;;;;;;5064550;28;20053;-74
2023/07/10 10:13:24;;;;;;;0.55;0.47;;;28.90;99.90;;;;;;5063741;28;20053;-73
2023/07/10 10:16:06;;;;;;;0.13;0.10;;;29.10;99.90;;;;;;5059782;28;20510;-73
2023/07/10 10:18:44;;;;;;;1.65;0.88;;;29.20;99.90;;;;;;5064462;28;20052;-73
2023/07/10 10:21:13;;;;;;;0.77;0.55;;;29.50;99.90;;;;;;5064222;28;20131;-73
2023/07/10 10:23:41;;;;;;;1.55;0.95;;;29.30;99.90;;;;;;5063912;28;20045;-73
2023/07/10 10:26:28;;;;;;;1.08;0.80;;;29.00;99.90;;;;;;5063936;28;20459;-73
2023/07/10 10:29:02;;;;;;;1.02;0.82;;;28.60;99.90;;;;;;5064286;28;20056;-73
2023/07/10 10:31:37;;;;;;;0.80;0.45;;;28.20;99.90;;;;;;5064991;28;20198;-73
2023/07/10 10:34:41;;;;;;;1.95;0.65;;;27.90;99.90;;;;;;5064996;28;20049;-72
2023/07/10 10:37:41;;;;;;;13.95;1.15;;;27.40;99.90;;;;;;5062584;28;20048;-72
2023/07/10 10:40:45;;;;;;;0.80;0.68;;;27.30;99.90;;;;;;5065867;28;20419;-73
2023/07/10 10:43:31;;;;;;;0.77;0.57;;;27.10;99.90;;;;;;5065969;28;20499;-72
2023/07/10 10:46:09;;;;;;;2.22;0.85;;;27.00;99.90;;;;;;5063017;28;20140;-72
2023/07/10 10:48:46;;;;;;;1.55;0.32;;;27.20;99.90;;;;;;5063554;28;20074;-72
2023/07/10 10:51:40;;;;;;;4.85;0.85;;;27.40;99.90;;;;;;5068154;28;20521;-72
2023/07/10 10:54:24;;;;;;;0.38;0.22;;;27.30;99.90;;;;;;5083399;28;20577;-72
2023/07/10 10:56:59;;;;;;;0.75;0.47;;;27.50;99.90;;;;;;5083351;28;20383;-72
2023/07/10 11:00:01;;;;;;;9.52;1.35;;;27.30;90.20;;;;;;5083164;28;20502;-72
2023/07/10 11:02:46;;;;;;;3.63;1.02;;;27.60;99.90;;;;;;5082929;28;20573;-71
2023/07/10 11:05:32;;;;;;;0.63;0.52;;;27.70;99.90;;;;;;5083493;28;20050;-72
2023/07/10 11:08:04;;;;;;;8.23;0.60;;;27.70;99.90;;;;;;5081809;28;20130;-72
2023/07/10 11:10:37;;;;;;;0.20;0.15;;;27.60;79.50;;;;;;5082299;28;20052;-72
2023/07/10 11:13:05;;;;;;;0.45;0.40;;;27.20;71.00;;;;;;5083325;28;20058;-72
2023/07/10 11:15:33;;;;;;;0.63;0.47;;;27.00;97.30;;;;;;5083405;28;20508;-70
2023/07/10 11:18:00;;;;;;;2.20;0.57;;;26.90;92.00;;;;;;5082711;28;20082;-71
2023/07/10 11:20:27;;;;;;;0.73;0.55;;;27.00;80.90;;;;;;5081181;28;20390;-70
2023/07/10 11:22:55;;;;;;;1.58;1.02;;;27.00;79.80;;;;;;5080326;28;20051;-71
2023/07/10 11:25:37;;;;;;;0.22;0.20;;;27.10;72.50;;;;;;5080610;28;20099;-72
2023/07/10 11:28:22;;;;;;;0.00;0.00;;;27.10;50.00;;;;;;5080827;28;20039;-72
2023/07/10 11:31:11;;;;;;;1.40;0.08;;;27.30;76.20;;;;;;5080665;28;20066;-72
2023/07/10 11:33:37;;;;;;;0.95;0.35;;;27.90;99.90;;;;;;5080795;28;20083;-72
2023/07/10 11:36:18;;;;;;;0.10;0.10;;;28.60;82.00;;;;;;5080278;28;20617;-73
2023/07/10 11:39:05;;;;;;;0.30;0.30;;;28.10;58.80;;;;;;5080339;28;20044;-73
2023/07/10 11:41:58;;;;;;;0.82;0.60;;;27.90;44.70;;;;;;5080353;28;20063;-71
2023/07/10 11:44:33;;;;;;;0.00;0.00;;;28.20;58.80;;;;;;5079636;28;20548;-70
2023/07/10 11:47:10;;;;;;;0.20;0.13;;;28.10;50.80;;;;;;5079158;28;20105;-73
2023/07/10 11:49:51;;;;;;;4.28;0.30;;;27.50;1.00;;;;;;5082458;28;20079;-72
2023/07/10 11:52:17;;;;;;;0.30;0.30;;;26.80;1.00;;;;;;5082342;28;20513;-73
2023/07/10 11:54:49;;;;;;;1.17;0.30;;;26.30;1.00;;;;;;5082498;28;20048;-72
2023/07/10 11:57:19;;;;;;;1.20;0.43;;;25.90;1.00;;;;;;5082833;28;20048;-72
2023/07/10 11:59:49;;;;;;;4.60;1.20;;;26.00;1.00;;;;;;5082496;28;20531;-72
2023/07/10 12:02:33;;;;;;;0.20;0.10;;;27.20;1.00;;;;;;5082684;28;20090;-73
2023/07/10 12:05:17;;;;;;;1.75;1.00;;;27.80;1.00;;;;;;5082311;28;20036;-73
2023/07/10 12:07:51;;;;;;;0.00;0.00;;;28.40;1.00;;;;;;5082363;28;20043;-72
2023/07/10 12:10:17;;;;;;;0.10;0.10;;;29.60;5.10;;;;;;5082602;28;20059;-73
2023/07/10 12:12:42;;;;;;;0.00;0.00;;;30.50;46.30;;;;;;5082346;28;20048;-73
2023/07/10 12:15:10;;;;;;;1.20;0.43;;;31.10;1.00;;;;;;5082590;28;20054;-73
2023/07/10 12:17:38;;;;;;;0.52;0.32;;;30.30;1.00;;;;;;5082170;28;20048;-71
2023/07/10 12:20:17;;;;;;;0.40;0.32;;;29.40;1.00;;;;;;5081924;28;20055;-71
2023/07/10 12:22:43;;;;;;;0.17;0.10;;;29.80;1.00;;;;;;5082179;28;20101;-72
2023/07/10 12:25:14;;;;;;;0.38;0.38;;;30.40;1.00;;;;;;5082354;28;20043;-73
2023/07/10 12:27:40;;;;;;;0.32;0.25;;;30.80;1.00;;;;;;5081983;28;20597;-73
2023/07/10 12:30:19;;;;;;;0.10;0.10;;;31.30;1.00;;;;;;5081992;28;20040;-72
2023/07/10 12:32:47;;;;;;;0.00;0.00;;;31.40;1.00;;;;;;5082270;28;20127;-73
2023/07/10 12:35:16;;;;;;;0.00;0.00;;;31.60;1.00;;;;;;5081486;28;20062;-73
2023/07/10 12:37:48;;;;;;;0.00;0.00;;;32.00;99.90;;;;;;5081866;28;20056;-73
2023/07/10 12:40:16;;;;;;;0.20;0.20;;;32.80;99.90;;;;;;5081672;28;20063;-73
2023/07/10 12:42:43;;;;;;;0.00;0.00;;;33.20;99.90;;;;;;5081615;28;20047;-71
2023/07/10 12:45:18;;;;;;;0.20;0.13;;;33.40;99.90;;;;;;5082017;28;20094;-71
2023/07/10 12:47:48;;;;;;;;;;;33.10;99.90;;;;;;5082570;28;20083;-72
2023/07/10 12:50:13;;;;;;;0.50;0.35;;;32.50;99.90;;;;;;5081619;28;20401;-72
2023/07/10 12:52:39;;;;;;;3.10;0.50;;;32.40;99.90;;;;;;5081601;28;20040;-71
2023/07/10 12:55:15;;;;;;;0.00;0.00;;;32.00;99.90;;;;;;5081675;28;20043;-72
2023/07/10 12:57:41;;;;;;;0.10;0.10;;;31.80;99.90;;;;;;5082128;28;20059;-72
2023/07/10 13:00:09;;;;;;;0.10;0.10;;;32.20;99.90;;;;;;5081775;28;20048;-72
2023/07/10 13:02:42;;;;;;;0.45;0.45;;;32.90;99.90;;;;;;5081764;28;20409;-72